Time;durP1;ratioP1;P1;durP2;ratioP2;P2;SDS_P1;SDS_P2;PMS_P1;PMS_P2;Temp;Humidity;BMP_temperature;BMP_pressure;BME280_temperature;BME280_humidity;BME280_pressure;Samples;Min_cycle;Max_cycle;Signal;HPM_P1;HPM_P2
2022/07/08 00:00:08;;;;;;;9.25;5.35;;;;;;;;;;4955713;29;20051;-75
2022/07/08 00:02:57;;;;;;;7.45;5.53;;;;;;;;;;4962046;28;20043;-77
2022/07/08 00:05:42;;;;;;;8.75;5.13;;;;;;;;;;4955783;29;20043;-79
2022/07/08 00:08:30;;;;;;;9.35;4.78;;;;;;;;;;4955644;29;20043;-77
2022/07/08 00:11:15;;;;;;;7.85;4.53;;;;;;;;;;4946900;28;20055;-76
2022/07/08 00:14:01;;;;;;;4.25;3.20;;;;;;;;;;4955418;29;20047;-76
2022/07/08 00:16:47;;;;;;;4.63;3.03;;;;;;;;;;4955662;29;20043;-77
2022/07/08 00:19:32;;;;;;;3.42;2.50;;;;;;;;;;4955617;29;20051;-76
2022/07/08 00:22:18;;;;;;;4.10;2.30;;;;;;;;;;4955597;29;20051;-76
2022/07/08 00:25:04;;;;;;;9.07;2.40;;;;;;;;;;4955272;28;20047;-76
2022/07/08 00:27:50;;;;;;;4.45;2.20;;;;;;;;;;4955472;29;20047;-75
2022/07/08 00:30:36;;;;;;;4.57;2.42;;;;;;;;;;4955649;29;20043;-76
2022/07/08 00:33:21;;;;;;;5.88;3.03;;;;;;;;;;4955678;29;20058;-76
2022/07/08 00:36:07;;;;;;;6.50;3.08;;;;;;;;;;4955329;29;20055;-77
2022/07/08 00:38:52;;;;;;;7.35;3.40;;;;;;;;;;4955437;29;20051;-77
2022/07/08 00:41:39;;;;;;;5.55;3.28;;;;;;;;;;4955322;29;20497;-78
2022/07/08 00:44:24;;;;;;;4.43;3.00;;;;;;;;;;4954878;29;20035;-77
2022/07/08 00:47:10;;;;;;;6.38;2.80;;;;;;;;;;4947705;29;20047;-76
2022/07/08 00:49:55;;;;;;;7.97;3.13;;;;;;;;;;4955260;29;20047;-76
2022/07/08 00:52:41;;;;;;;5.85;3.30;;;;;;;;;;4955321;29;20043;-76
2022/07/08 00:55:27;;;;;;;3.90;2.95;;;;;;;;;;4955463;29;20078;-77
2022/07/08 00:58:12;;;;;;;5.80;2.55;;;;;;;;;;4955193;29;20039;-77
2022/07/08 01:00:58;;;;;;;16.02;4.50;;;;;;;;;;4955512;29;20051;-77
2022/07/08 01:03:45;;;;;;;3.72;2.63;;;;;;;;;;4955021;29;20039;-77
2022/07/08 01:06:30;;;;;;;5.80;2.60;;;;;;;;;;4954852;29;20428;-77
2022/07/08 01:09:16;;;;;;;3.58;2.60;;;;;;;;;;4955227;29;20047;-77
2022/07/08 01:12:02;;;;;;;5.57;2.40;;;;;;;;;;4954950;29;20055;-77
2022/07/08 01:14:48;;;;;;;2.72;2.50;;;;;;;;;;4955194;29;20044;-77
2022/07/08 01:17:44;;;;;;;3.35;2.25;;;;;;;;;;4955140;29;20047;-76
2022/07/08 01:20:34;;;;;;;3.42;2.20;;;;;;;;;;4940708;29;20485;-77
2022/07/08 01:23:19;;;;;;;4.07;2.22;;;;;;;;;;4955329;29;20039;-76
2022/07/08 01:26:09;;;;;;;3.40;2.60;;;;;;;;;;4954488;29;20043;-77
2022/07/08 01:28:55;;;;;;;5.60;2.67;;;;;;;;;;4955088;29;20051;-78
2022/07/08 01:31:41;;;;;;;5.88;3.40;;;;;;;;;;4955119;29;20043;-77
2022/07/08 01:34:26;;;;;;;5.75;3.67;;;;;;;;;;4954996;29;20047;-77
2022/07/08 01:37:11;;;;;;;11.18;4.18;;;;;;;;;;4955674;28;20043;-76
2022/07/08 01:39:57;;;;;;;6.88;3.78;;;;;;;;;;4943754;29;20051;-77
2022/07/08 01:42:42;;;;;;;7.00;3.60;;;;;;;;;;4958092;29;20493;-75
2022/07/08 01:45:27;;;;;;;5.95;3.30;;;;;;;;;;4958374;29;20393;-78
2022/07/08 01:48:13;;;;;;;5.38;3.13;;;;;;;;;;4958185;29;20043;-77
2022/07/08 01:50:58;;;;;;;6.15;3.28;;;;;;;;;;4958726;29;20481;-77
2022/07/08 01:53:44;;;;;;;10.07;3.00;;;;;;;;;;4957950;29;20051;-77
2022/07/08 01:56:29;;;;;;;6.28;2.97;;;;;;;;;;4958238;29;20035;-77
2022/07/08 01:59:15;;;;;;;3.63;2.63;;;;;;;;;;4958205;29;20051;-77
2022/07/08 02:02:01;;;;;;;5.05;3.58;;;;;;;;;;4958001;29;20047;-76
2022/07/08 02:04:47;;;;;;;4.50;3.25;;;;;;;;;;4958098;29;20043;-76
2022/07/08 02:07:33;;;;;;;5.40;3.33;;;;;;;;;;4957851;29;20047;-77
2022/07/08 02:10:18;;;;;;;4.10;3.30;;;;;;;;;;4958060;29;20043;-76
2022/07/08 02:13:04;;;;;;;6.03;3.15;;;;;;;;;;4958157;29;20099;-76
2022/07/08 02:15:49;;;;;;;4.93;3.13;;;;;;;;;;4957459;29;20035;-76
2022/07/08 02:18:34;;;;;;;4.72;2.60;;;;;;;;;;4957680;29;20051;-78
2022/07/08 02:21:20;;;;;;;4.50;2.45;;;;;;;;;;4957590;29;20059;-77
2022/07/08 02:24:06;;;;;;;3.97;2.40;;;;;;;;;;4957679;29;20043;-77
2022/07/08 02:26:51;;;;;;;5.40;2.33;;;;;;;;;;4957672;29;20047;-77
2022/07/08 02:29:36;;;;;;;7.32;2.78;;;;;;;;;;4957490;29;20039;-77
2022/07/08 02:32:22;;;;;;;18.33;11.40;;;;;;;;;;4957801;29;20047;-76
2022/07/08 02:35:08;;;;;;;5.60;4.43;;;;;;;;;;4957382;29;20043;-77
2022/07/08 02:37:53;;;;;;;21.33;14.50;;;;;;;;;;4957467;29;20047;-77
2022/07/08 02:40:39;;;;;;;3.90;3.28;;;;;;;;;;4958081;29;20047;-77
2022/07/08 02:43:24;;;;;;;8.43;2.85;;;;;;;;;;4956876;29;20056;-76
2022/07/08 02:46:10;;;;;;;4.70;3.35;;;;;;;;;;4957296;29;20047;-76
2022/07/08 02:48:56;;;;;;;6.82;3.42;;;;;;;;;;4956670;28;20043;-76
2022/07/08 02:51:41;;;;;;;12.45;7.10;;;;;;;;;;4956616;29;20046;-76
2022/07/08 02:54:27;;;;;;;15.13;9.05;;;;;;;;;;4957495;29;20481;-77
2022/07/08 02:57:12;;;;;;;40.85;28.45;;;;;;;;;;4956881;29;20047;-76
2022/07/08 02:59:58;;;;;;;19.67;8.27;;;;;;;;;;4957414;29;20043;-77
2022/07/08 03:02:43;;;;;;;5.10;4.00;;;;;;;;;;4957152;29;20043;-77
2022/07/08 03:05:29;;;;;;;6.38;3.63;;;;;;;;;;4956548;29;20047;-75
2022/07/08 03:08:15;;;;;;;9.60;3.58;;;;;;;;;;4957061;29;20039;-77
2022/07/08 03:11:00;;;;;;;7.47;2.90;;;;;;;;;;4956740;29;20489;-76
2022/07/08 03:13:46;;;;;;;8.30;3.17;;;;;;;;;;4956818;29;20040;-78
2022/07/08 03:16:32;;;;;;;7.80;3.00;;;;;;;;;;4956839;29;20051;-77
2022/07/08 03:19:17;;;;;;;4.65;3.03;;;;;;;;;;4956377;29;20047;-77
2022/07/08 03:22:03;;;;;;;13.38;3.33;;;;;;;;;;4956676;29;20039;-75
2022/07/08 03:24:48;;;;;;;8.57;2.65;;;;;;;;;;4956773;29;20047;-77
2022/07/08 03:27:34;;;;;;;5.88;3.13;;;;;;;;;;4956486;29;20047;-76
2022/07/08 03:30:19;;;;;;;5.63;2.42;;;;;;;;;;4956950;29;20051;-76
2022/07/08 03:33:05;;;;;;;12.23;2.80;;;;;;;;;;4948086;28;20039;-76
2022/07/08 03:35:50;;;;;;;6.93;2.58;;;;;;;;;;4956489;29;20039;-76
2022/07/08 03:38:36;;;;;;;9.75;2.75;;;;;;;;;;4956280;29;20043;-77
2022/07/08 03:41:21;;;;;;;5.32;2.13;;;;;;;;;;4956180;29;20055;-76
2022/07/08 03:44:06;;;;;;;8.68;2.97;;;;;;;;;;4956025;29;20043;-76
2022/07/08 03:46:52;;;;;;;5.40;2.67;;;;;;;;;;4955717;29;20413;-76
2022/07/08 03:49:38;;;;;;;5.82;2.58;;;;;;;;;;4956207;29;20047;-77
2022/07/08 03:52:23;;;;;;;4.57;2.63;;;;;;;;;;4956137;29;20051;-79
2022/07/08 03:55:08;;;;;;;5.20;2.90;;;;;;;;;;4955873;29;20035;-76
2022/07/08 03:57:53;;;;;;;5.40;2.50;;;;;;;;;;4956074;29;20043;-76
2022/07/08 04:00:39;;;;;;;8.07;2.88;;;;;;;;;;4955215;28;20047;-79
2022/07/08 04:03:24;;;;;;;7.57;2.50;;;;;;;;;;4955885;29;20392;-78
2022/07/08 04:06:10;;;;;;;7.68;2.50;;;;;;;;;;4955801;29;20044;-77
2022/07/08 04:08:56;;;;;;;8.60;2.67;;;;;;;;;;4955764;29;20481;-77
2022/07/08 04:11:41;;;;;;;12.10;3.60;;;;;;;;;;4955831;29;20401;-78
2022/07/08 04:14:27;;;;;;;6.43;2.78;;;;;;;;;;4955646;29;20043;-78
2022/07/08 04:17:12;;;;;;;8.98;2.80;;;;;;;;;;4955667;29;20047;-78
2022/07/08 04:19:58;;;;;;;4.85;2.38;;;;;;;;;;4955907;29;20400;-77
2022/07/08 04:22:44;;;;;;;6.78;2.55;;;;;;;;;;4955373;29;20047;-77
2022/07/08 04:25:30;;;;;;;7.10;2.20;;;;;;;;;;4955543;29;20051;-77
2022/07/08 04:28:16;;;;;;;6.13;2.63;;;;;;;;;;4962113;28;20055;-77
2022/07/08 04:31:01;;;;;;;8.10;2.35;;;;;;;;;;4955375;29;20055;-77
2022/07/08 04:33:47;;;;;;;4.65;2.25;;;;;;;;;;4955834;29;20047;-77
2022/07/08 04:36:33;;;;;;;15.27;2.67;;;;;;;;;;4955256;29;20051;-77
2022/07/08 04:39:18;;;;;;;4.40;2.50;;;;;;;;;;4955514;29;20051;-79
2022/07/08 04:42:04;;;;;;;7.97;2.28;;;;;;;;;;4955579;29;20043;-77
2022/07/08 04:44:50;;;;;;;14.02;2.20;;;;;;;;;;4942710;23;20055;-79
2022/07/08 04:47:35;;;;;;;4.75;2.35;;;;;;;;;;4936251;29;20043;-78
2022/07/08 04:50:21;;;;;;;8.15;2.83;;;;;;;;;;4935684;29;20043;-77
2022/07/08 04:53:06;;;;;;;7.85;2.22;;;;;;;;;;4935960;29;20402;-76
2022/07/08 04:55:52;;;;;;;3.22;2.10;;;;;;;;;;4935640;29;20044;-78
2022/07/08 04:58:37;;;;;;;2.97;1.67;;;;;;;;;;4935584;29;20039;-76
2022/07/08 05:01:23;;;;;;;10.90;2.05;;;;;;;;;;4935805;29;20039;-77
2022/07/08 05:04:08;;;;;;;11.75;5.55;;;;;;;;;;4935541;29;20055;-76
2022/07/08 05:06:54;;;;;;;11.90;3.50;;;;;;;;;;4934994;29;20051;-78
2022/07/08 05:09:39;;;;;;;33.05;13.05;;;;;;;;;;4935663;29;20059;-77
2022/07/08 05:12:25;;;;;;;59.45;23.58;;;;;;;;;;4937663;29;20485;-77
2022/07/08 05:15:11;;;;;;;49.85;18.20;;;;;;;;;;4939662;29;20048;-77
2022/07/08 05:17:56;;;;;;;39.10;13.30;;;;;;;;;;4939385;29;20048;-76
2022/07/08 05:21:38;;;;;;;38.17;12.40;;;;;;;;;;4939636;29;20048;-81
2022/07/08 05:24:25;;;;;;;9.18;3.05;;;;;;;;;;4871345;29;20048;-79
2022/07/08 05:27:11;;;;;;;4.35;2.13;;;;;;;;;;4938994;29;20048;-79
2022/07/08 05:30:02;;;;;;;7.13;2.03;;;;;;;;;;4945906;29;20502;-78
2022/07/08 05:32:47;;;;;;;6.53;2.03;;;;;;;;;;4939108;29;20043;-77
2022/07/08 05:35:33;;;;;;;9.32;3.58;;;;;;;;;;4938476;29;20043;-79
2022/07/08 05:38:18;;;;;;;8.57;2.90;;;;;;;;;;4937313;29;20047;-80
2022/07/08 05:41:04;;;;;;;5.18;2.20;;;;;;;;;;4939007;29;20059;-80
2022/07/08 05:43:50;;;;;;;5.60;2.55;;;;;;;;;;4938503;29;20055;-76
2022/07/08 05:46:35;;;;;;;5.22;2.45;;;;;;;;;;4945034;29;20051;-76
2022/07/08 05:49:21;;;;;;;3.22;2.28;;;;;;;;;;4938432;29;20043;-77
2022/07/08 05:52:08;;;;;;;3.70;2.20;;;;;;;;;;4923517;29;20047;-78
2022/07/08 05:54:53;;;;;;;7.60;2.45;;;;;;;;;;4937900;29;20056;-78
2022/07/08 05:57:39;;;;;;;5.47;2.30;;;;;;;;;;4938032;29;20493;-77
2022/07/08 06:00:25;;;;;;;5.45;2.22;;;;;;;;;;4938605;29;20048;-76
2022/07/08 06:03:11;;;;;;;4.95;2.40;;;;;;;;;;4945014;29;20044;-74
2022/07/08 06:06:03;;;;;;;24.55;6.70;;;;;;;;;;4938384;29;20409;-75
2022/07/08 06:08:49;;;;;;;8.98;4.20;;;;;;;;;;4931134;29;20048;-76
2022/07/08 06:11:34;;;;;;;11.57;4.10;;;;;;;;;;4938179;29;20059;-76
2022/07/08 06:14:20;;;;;;;15.65;7.30;;;;;;;;;;4937948;29;20040;-76
2022/07/08 06:17:05;;;;;;;3.10;2.20;;;;;;;;;;4938257;29;20407;-78
2022/07/08 06:19:51;;;;;;;4.05;1.77;;;;;;;;;;4938866;29;20429;-76
2022/07/08 06:22:37;;;;;;;5.25;1.83;;;;;;;;;;4938232;29;20048;-77
2022/07/08 06:25:22;;;;;;;2.67;1.45;;;;;;;;;;4937855;29;20478;-77
2022/07/08 06:28:08;;;;;;;6.88;2.45;;;;;;;;;;4937302;29;20044;-77
2022/07/08 06:30:53;;;;;;;4.15;2.08;;;;;;;;;;4938563;29;20051;-76
2022/07/08 06:33:39;;;;;;;1.58;1.00;;;;;;;;;;4938059;29;20048;-76
2022/07/08 06:36:25;;;;;;;3.03;1.80;;;;;;;;;;4937359;29;20416;-79
2022/07/08 06:39:11;;;;;;;5.43;2.45;;;;;;;;;;4937930;29;20048;-76
2022/07/08 06:41:57;;;;;;;4.43;1.80;;;;;;;;;;4938285;29;20051;-76
2022/07/08 06:44:47;;;;;;;2.92;1.90;;;;;;;;;;4922857;29;20047;-77
2022/07/08 06:47:33;;;;;;;11.10;3.92;;;;;;;;;;4937275;29;20048;-77
2022/07/08 06:50:18;;;;;;;14.68;5.43;;;;;;;;;;4938094;29;20043;-77
2022/07/08 06:53:04;;;;;;;5.55;2.58;;;;;;;;;;4943945;29;20059;-78
2022/07/08 06:55:50;;;;;;;8.55;2.53;;;;;;;;;;4936495;29;20410;-77
2022/07/08 06:58:35;;;;;;;14.15;3.50;;;;;;;;;;4944230;29;20043;-76
2022/07/08 07:01:21;;;;;;;11.45;4.78;;;;;;;;;;4937102;29;20047;-76
2022/07/08 07:04:07;;;;;;;4.65;1.90;;;;;;;;;;4937409;29;20043;-75
2022/07/08 07:06:54;;;;;;;5.22;1.73;;;;;;;;;;4937048;29;20048;-77
2022/07/08 07:09:39;;;;;;;6.78;2.10;;;;;;;;;;4937209;29;20486;-77
2022/07/08 07:12:24;;;;;;;8.63;2.03;;;;;;;;;;4937662;29;20444;-77
2022/07/08 07:15:10;;;;;;;3.17;1.90;;;;;;;;;;4937160;29;20051;-77
2022/07/08 07:17:55;;;;;;;7.18;2.10;;;;;;;;;;4943224;29;20047;-78
2022/07/08 07:20:40;;;;;;;2.70;1.80;;;;;;;;;;4937640;29;20044;-76
2022/07/08 07:23:25;;;;;;;7.80;2.30;;;;;;;;;;4937140;29;20047;-78
2022/07/08 07:26:11;;;;;;;3.53;2.03;;;;;;;;;;4937461;29;20051;-77
2022/07/08 07:28:57;;;;;;;3.50;2.00;;;;;;;;;;4937052;29;20043;-75
2022/07/08 07:31:42;;;;;;;5.68;2.15;;;;;;;;;;4937331;29;20048;-78
2022/07/08 07:34:27;;;;;;;3.67;2.28;;;;;;;;;;4937028;29;20044;-76
2022/07/08 07:37:12;;;;;;;4.75;2.40;;;;;;;;;;4936533;29;20051;-76
2022/07/08 07:39:58;;;;;;;5.97;2.40;;;;;;;;;;4937130;29;20421;-76
2022/07/08 07:42:44;;;;;;;6.65;2.25;;;;;;;;;;4936566;29;20044;-77
2022/07/08 07:45:30;;;;;;;4.85;2.60;;;;;;;;;;4923346;29;20039;-77
2022/07/08 07:48:15;;;;;;;4.82;2.80;;;;;;;;;;4936888;29;20048;-75
2022/07/08 07:51:00;;;;;;;7.93;4.07;;;;;;;;;;4936301;29;20040;-77
2022/07/08 07:53:46;;;;;;;6.43;3.17;;;;;;;;;;4937058;29;20048;-77
2022/07/08 07:56:33;;;;;;;5.88;2.85;;;;;;;;;;4936790;29;20043;-77
2022/07/08 07:59:18;;;;;;;2.63;1.90;;;;;;;;;;4936673;29;20478;-76
2022/07/08 08:02:04;;;;;;;7.20;2.50;;;;;;;;;;4937158;29;20389;-75
2022/07/08 08:04:49;;;;;;;11.43;2.60;;;;;;;;;;4936165;29;20410;-75
2022/07/08 08:07:39;;;;;;;5.78;2.13;;;;;;;;;;4936655;29;20493;-77
2022/07/08 08:10:25;;;;;;;3.55;2.17;;;;;;;;;;4936648;29;20043;-77
2022/07/08 08:13:10;;;;;;;13.25;2.25;;;;;;;;;;4936068;29;20481;-76
2022/07/08 08:15:56;;;;;;;2.65;2.10;;;;;;;;;;4936710;29;20048;-76
2022/07/08 08:18:41;;;;;;;10.27;2.70;;;;;;;;;;4935882;29;20096;-76
2022/07/08 08:21:27;;;;;;;3.22;2.40;;;;;;;;;;4936696;29;20395;-76
2022/07/08 08:24:11;;;;;;;5.13;2.40;;;;;;;;;;4936335;29;20043;-75
2022/07/08 08:26:57;;;;;;;190.10;148.18;;;;;;;;;;4935900;29;20043;-76
2022/07/08 08:29:42;;;;;;;90.63;58.58;;;;;;;;;;4936193;29;20052;-76
2022/07/08 08:32:28;;;;;;;310.40;227.43;;;;;;;;;;4935628;29;20106;-76
2022/07/08 08:35:13;;;;;;;128.18;83.13;;;;;;;;;;4935476;29;20378;-75
2022/07/08 08:37:59;;;;;;;397.60;305.83;;;;;;;;;;4935889;29;20051;-77
2022/07/08 08:40:46;;;;;;;160.65;130.13;;;;;;;;;;4935468;29;20056;-75
2022/07/08 08:43:32;;;;;;;11.57;3.63;;;;;;;;;;4936515;29;20486;-78
2022/07/08 08:46:23;;;;;;;5.03;3.00;;;;;;;;;;4937530;29;20047;-77
2022/07/08 08:49:10;;;;;;;6.72;3.05;;;;;;;;;;4948793;29;20043;-78
2022/07/08 08:51:57;;;;;;;4.20;3.17;;;;;;;;;;4942553;29;20085;-76
2022/07/08 08:54:43;;;;;;;6.72;3.10;;;;;;;;;;4941737;29;20106;-78
2022/07/08 08:57:29;;;;;;;3.67;2.55;;;;;;;;;;4941946;29;20051;-79
2022/07/08 09:00:14;;;;;;;4.40;2.45;;;;;;;;;;4942581;29;20040;-78
2022/07/08 09:03:00;;;;;;;4.93;2.83;;;;;;;;;;4948432;29;20051;-76
2022/07/08 09:05:47;;;;;;;4.93;3.28;;;;;;;;;;4948761;29;20043;-76
2022/07/08 09:08:33;;;;;;;12.57;10.48;;;;;;;;;;4941708;29;20406;-76
2022/07/08 09:11:19;;;;;;;9.57;6.15;;;;;;;;;;4948555;29;20044;-75
2022/07/08 09:14:17;;;;;;;6.53;3.58;;;;;;;;;;4942271;29;20043;-76
2022/07/08 09:17:10;;;;;;;5.03;3.58;;;;;;;;;;4941774;29;20056;-76
2022/07/08 09:19:55;;;;;;;5.00;3.47;;;;;;;;;;4942165;29;20051;-76
2022/07/08 09:22:40;;;;;;;7.00;3.60;;;;;;;;;;4941725;29;20055;-75
2022/07/08 09:25:26;;;;;;;5.40;3.50;;;;;;;;;;4942227;29;20059;-76
2022/07/08 09:28:12;;;;;;;9.27;4.00;;;;;;;;;;4942151;29;20481;-76
2022/07/08 09:30:59;;;;;;;5.28;3.58;;;;;;;;;;4941588;29;20052;-76
2022/07/08 09:33:44;;;;;;;5.43;3.47;;;;;;;;;;4948520;29;20044;-76
2022/07/08 09:36:43;;;;;;;5.00;3.63;;;;;;;;;;4941694;29;20048;-77
2022/07/08 09:39:29;;;;;;;3.97;2.17;;;;;;;;;;4941624;29;20056;-77
2022/07/08 09:42:16;;;;;;;3.92;3.17;;;;;;;;;;4942016;29;20056;-77
2022/07/08 09:45:01;;;;;;;3.90;3.13;;;;;;;;;;4941178;29;20055;-77
2022/07/08 09:47:51;;;;;;;3.92;3.10;;;;;;;;;;4941818;29;20047;-77
2022/07/08 09:50:45;;;;;;;5.47;3.47;;;;;;;;;;4941474;29;20048;-76
2022/07/08 09:53:31;;;;;;;6.32;3.83;;;;;;;;;;4941456;29;20502;-76
2022/07/08 09:56:26;;;;;;;4.85;3.60;;;;;;;;;;4942055;29;20055;-76
2022/07/08 09:59:11;;;;;;;5.85;3.92;;;;;;;;;;4937531;29;20055;-75
2022/07/08 10:01:58;;;;;;;6.35;4.20;;;;;;;;;;4945550;29;20044;-75
2022/07/08 10:04:43;;;;;;;8.73;3.67;;;;;;;;;;4938507;29;20044;-76
2022/07/08 10:07:29;;;;;;;9.85;4.38;;;;;;;;;;4938625;29;20040;-75
2022/07/08 10:10:14;;;;;;;3.70;3.30;;;;;;;;;;4938942;29;20047;-76
2022/07/08 10:13:01;;;;;;;7.20;3.78;;;;;;;;;;4937794;29;20047;-76
2022/07/08 10:15:49;;;;;;;7.43;4.15;;;;;;;;;;4938668;29;20047;-75
2022/07/08 10:18:39;;;;;;;6.95;3.70;;;;;;;;;;4938292;29;20044;-76
2022/07/08 10:21:28;;;;;;;6.75;3.95;;;;;;;;;;4938252;29;20056;-76
2022/07/08 10:24:20;;;;;;;7.35;3.90;;;;;;;;;;4938252;29;20051;-76
2022/07/08 10:27:05;;;;;;;10.52;3.80;;;;;;;;;;4937757;29;20417;-77
2022/07/08 10:29:50;;;;;;;9.85;4.53;;;;;;;;;;4938281;29;20035;-76
2022/07/08 10:32:37;;;;;;;5.32;3.75;;;;;;;;;;4938264;29;20044;-76
2022/07/08 10:35:22;;;;;;;5.22;3.58;;;;;;;;;;4937271;29;20052;-76
2022/07/08 10:38:07;;;;;;;5.18;3.85;;;;;;;;;;4938158;29;20048;-76
2022/07/08 10:40:53;;;;;;;8.45;3.60;;;;;;;;;;4937770;29;20048;-78
2022/07/08 10:43:50;;;;;;;6.78;3.72;;;;;;;;;;4937717;29;20048;-78
2022/07/08 10:46:36;;;;;;;7.65;2.97;;;;;;;;;;4938035;29;20043;-77
2022/07/08 10:49:22;;;;;;;7.35;3.60;;;;;;;;;;4942179;29;20047;-76
2022/07/08 10:52:07;;;;;;;4.95;4.00;;;;;;;;;;4943375;29;20039;-76
2022/07/08 10:55:13;;;;;;;7.00;4.10;;;;;;;;;;4937262;29;20055;-75
2022/07/08 10:57:59;;;;;;;5.70;4.03;;;;;;;;;;4937927;29;20051;-76
2022/07/08 11:01:20;;;;;;;5.93;3.63;;;;;;;;;;4936490;29;20047;-74
2022/07/08 11:04:26;;;;;;;5.95;4.28;;;;;;;;;;4936352;29;20051;-78
2022/07/08 11:07:26;;;;;;;;;;;;;;;;;;4937241;29;20039;-75
2022/07/08 11:10:12;;;;;;;5.38;4.65;;;;;;;;;;4935429;29;19919;-76
2022/07/08 11:12:58;;;;;;;6.20;4.53;;;;;;;;;;4936653;29;20040;-77
2022/07/08 11:15:43;;;;;;;4.82;4.22;;;;;;;;;;4936839;29;20039;-77
2022/07/08 11:18:29;;;;;;;6.13;5.32;;;;;;;;;;4937279;29;20417;-76
2022/07/08 11:21:15;;;;;;;4.75;4.13;;;;;;;;;;4937513;29;20048;-77
2022/07/08 11:24:01;;;;;;;9.10;4.93;;;;;;;;;;4943493;29;20047;-76
2022/07/08 11:26:50;;;;;;;5.10;4.60;;;;;;;;;;4937369;29;20409;-77
2022/07/08 11:29:36;;;;;;;6.47;5.25;;;;;;;;;;4937207;29;20044;-78
2022/07/08 11:32:23;;;;;;;6.50;4.85;;;;;;;;;;4936873;29;20044;-76
2022/07/08 11:35:09;;;;;;;6.93;5.13;;;;;;;;;;4922727;29;20055;-76
2022/07/08 11:37:55;;;;;;;6.95;5.40;;;;;;;;;;4936668;29;20501;-76
2022/07/08 11:40:44;;;;;;;8.80;6.05;;;;;;;;;;4937350;29;20052;-77
2022/07/08 11:43:29;;;;;;;6.78;5.38;;;;;;;;;;4936668;29;20052;-76
2022/07/08 11:46:20;;;;;;;9.05;6.18;;;;;;;;;;4936420;29;20055;-76
2022/07/08 11:49:06;;;;;;;8.63;6.80;;;;;;;;;;4936581;29;20047;-77
2022/07/08 11:51:56;;;;;;;13.18;7.13;;;;;;;;;;4936511;29;20421;-77
2022/07/08 11:54:44;;;;;;;10.35;7.07;;;;;;;;;;4936685;29;20047;-76
2022/07/08 11:57:29;;;;;;;8.38;7.07;;;;;;;;;;4936735;29;20393;-76
2022/07/08 12:00:15;;;;;;;7.05;6.35;;;;;;;;;;4936575;29;20051;-76
2022/07/08 12:03:01;;;;;;;10.38;7.13;;;;;;;;;;4936631;29;20048;-76
2022/07/08 12:05:50;;;;;;;11.48;7.55;;;;;;;;;;4936903;29;20043;-76
2022/07/08 12:08:42;;;;;;;8.20;7.32;;;;;;;;;;4936365;29;20051;-77
2022/07/08 12:11:27;;;;;;;9.02;7.78;;;;;;;;;;4935975;29;20039;-76
2022/07/08 12:14:13;;;;;;;11.60;7.53;;;;;;;;;;4936088;29;20044;-77
2022/07/08 12:16:58;;;;;;;11.25;7.75;;;;;;;;;;4936339;29;20059;-76
2022/07/08 12:19:45;;;;;;;8.23;7.32;;;;;;;;;;4936737;29;20485;-77
2022/07/08 12:22:40;;;;;;;6.53;5.43;;;;;;;;;;4935804;29;20474;-77
2022/07/08 12:25:26;;;;;;;7.47;5.88;;;;;;;;;;4936475;29;20055;-76
2022/07/08 12:28:12;;;;;;;9.20;6.80;;;;;;;;;;4935992;29;20044;-76
2022/07/08 12:30:57;;;;;;;9.32;7.65;;;;;;;;;;4936429;29;20047;-76
2022/07/08 12:33:43;;;;;;;8.93;6.95;;;;;;;;;;4936872;29;20044;-76
2022/07/08 12:36:28;;;;;;;9.35;7.68;;;;;;;;;;4935986;29;20047;-76
2022/07/08 12:39:27;;;;;;;9.13;3.80;;;;;;;;;;4936302;29;20040;-76
2022/07/08 12:42:22;;;;;;;8.20;6.18;;;;;;;;;;4935606;29;20035;-76
2022/07/08 12:45:16;;;;;;;9.05;7.53;;;;;;;;;;4936006;29;20051;-76
2022/07/08 12:48:02;;;;;;;7.55;6.53;;;;;;;;;;4935886;29;20052;-77
2022/07/08 12:50:47;;;;;;;12.68;6.60;;;;;;;;;;4935857;29;20477;-77
2022/07/08 12:53:33;;;;;;;11.73;7.18;;;;;;;;;;4942309;29;20052;-76
2022/07/08 12:56:18;;;;;;;8.55;7.35;;;;;;;;;;4935962;29;20052;-76
2022/07/08 12:59:04;;;;;;;9.75;6.88;;;;;;;;;;4936203;29;20489;-76
2022/07/08 13:01:50;;;;;;;11.60;8.27;;;;;;;;;;4936036;29;20057;-76
2022/07/08 13:04:35;;;;;;;10.65;7.90;;;;;;;;;;4934777;29;20051;-77
2022/07/08 13:07:21;;;;;;;13.55;10.73;;;;;;;;;;4935796;29;20048;-77
2022/07/08 13:10:08;;;;;;;10.63;6.93;;;;;;;;;;4935896;29;20052;-77
2022/07/08 13:12:53;;;;;;;10.80;7.72;;;;;;;;;;4942058;29;20051;-75
2022/07/08 13:15:39;;;;;;;10.73;8.02;;;;;;;;;;4936133;29;20056;-75
2022/07/08 13:18:24;;;;;;;9.73;7.93;;;;;;;;;;4935100;29;20040;-76
2022/07/08 13:21:10;;;;;;;9.60;7.10;;;;;;;;;;4935740;29;20052;-75
2022/07/08 13:23:57;;;;;;;12.77;8.63;;;;;;;;;;4940224;29;20048;-76
2022/07/08 13:26:42;;;;;;;12.13;7.93;;;;;;;;;;4940117;29;20040;-76
2022/07/08 13:29:28;;;;;;;12.15;7.63;;;;;;;;;;4941183;29;20493;-76
2022/07/08 13:32:13;;;;;;;8.10;6.65;;;;;;;;;;4935305;29;20433;-76
2022/07/08 13:34:59;;;;;;;11.48;7.68;;;;;;;;;;4938239;29;20055;-76
2022/07/08 13:37:44;;;;;;;11.13;7.57;;;;;;;;;;4945779;29;20051;-76
2022/07/08 13:40:30;;;;;;;12.77;7.63;;;;;;;;;;4939518;29;20047;-76
2022/07/08 13:43:15;;;;;;;11.55;7.75;;;;;;;;;;4943849;29;20055;-75
2022/07/08 13:46:01;;;;;;;12.80;8.45;;;;;;;;;;4939036;29;20044;-76
2022/07/08 13:48:46;;;;;;;9.00;8.07;;;;;;;;;;4938793;29;20060;-75
2022/07/08 13:51:32;;;;;;;7.32;6.55;;;;;;;;;;4939522;29;20474;-76
2022/07/08 13:54:18;;;;;;;9.38;8.43;;;;;;;;;;4938566;29;20055;-75
2022/07/08 13:57:04;;;;;;;9.05;8.15;;;;;;;;;;4939138;29;20056;-75
2022/07/08 13:59:49;;;;;;;10.88;8.65;;;;;;;;;;4944830;29;20394;-77
2022/07/08 14:02:34;;;;;;;9.18;8.20;;;;;;;;;;4938746;29;20048;-76
2022/07/08 14:05:20;;;;;;;11.18;8.82;;;;;;;;;;4938526;29;20402;-76
2022/07/08 14:08:06;;;;;;;10.65;8.57;;;;;;;;;;4937925;29;20055;-76
2022/07/08 14:10:51;;;;;;;12.32;8.85;;;;;;;;;;4938499;29;20059;-77
2022/07/08 14:13:37;;;;;;;12.48;9.50;;;;;;;;;;4938633;29;20051;-77
2022/07/08 14:16:22;;;;;;;11.57;9.65;;;;;;;;;;4938397;29;20048;-75
2022/07/08 14:19:08;;;;;;;14.85;9.75;;;;;;;;;;4938188;29;20051;-76
2022/07/08 14:21:55;;;;;;;13.38;9.63;;;;;;;;;;4938083;29;20056;-76
2022/07/08 14:24:40;;;;;;;12.35;9.48;;;;;;;;;;4938492;29;20047;-76
2022/07/08 14:27:25;;;;;;;14.13;8.90;;;;;;;;;;4938526;29;20043;-76
2022/07/08 14:30:11;;;;;;;13.50;9.40;;;;;;;;;;4937778;29;20055;-75
2022/07/08 14:32:56;;;;;;;11.27;8.90;;;;;;;;;;4938159;29;20048;-76
2022/07/08 14:35:42;;;;;;;10.98;8.57;;;;;;;;;;4937796;29;20052;-76
2022/07/08 14:38:27;;;;;;;9.90;8.57;;;;;;;;;;4938179;29;20055;-75
2022/07/08 14:41:13;;;;;;;14.00;9.57;;;;;;;;;;4938289;29;20051;-75
2022/07/08 14:43:59;;;;;;;13.15;9.02;;;;;;;;;;4936562;29;20051;-76
2022/07/08 14:46:45;;;;;;;15.57;9.27;;;;;;;;;;4938034;29;20051;-75
2022/07/08 14:49:43;;;;;;;10.18;8.85;;;;;;;;;;4937696;29;20043;-77
2022/07/08 14:52:31;;;;;;;18.10;10.88;;;;;;;;;;4944262;29;20421;-75
2022/07/08 14:55:17;;;;;;;12.25;10.68;;;;;;;;;;4937612;29;20055;-76
2022/07/08 14:58:02;;;;;;;11.20;9.15;;;;;;;;;;4937277;29;20044;-77
2022/07/08 15:00:49;;;;;;;13.68;10.05;;;;;;;;;;4938033;29;20051;-75
2022/07/08 15:03:34;;;;;;;13.18;9.20;;;;;;;;;;4937261;29;20044;-76
2022/07/08 15:06:20;;;;;;;13.27;8.77;;;;;;;;;;4937315;29;20393;-78
2022/07/08 15:09:06;;;;;;;11.98;9.20;;;;;;;;;;4937455;29;20091;-74
2022/07/08 15:11:51;;;;;;;15.32;8.82;;;;;;;;;;4943614;29;20539;-75
2022/07/08 15:14:37;;;;;;;17.40;10.10;;;;;;;;;;4937713;29;20052;-76
2022/07/08 15:17:23;;;;;;;13.18;9.07;;;;;;;;;;4937048;29;20048;-76
2022/07/08 15:20:10;;;;;;;15.43;8.57;;;;;;;;;;4943462;29;20047;-74
2022/07/08 15:22:56;;;;;;;12.27;9.05;;;;;;;;;;4929409;29;20052;-75
2022/07/08 15:25:42;;;;;;;14.73;10.32;;;;;;;;;;4936878;29;20048;-75
2022/07/08 15:28:28;;;;;;;13.32;9.85;;;;;;;;;;4937273;29;20047;-73
2022/07/08 15:31:14;;;;;;;15.77;10.55;;;;;;;;;;4937296;29;20490;-74
2022/07/08 15:34:00;;;;;;;18.23;10.18;;;;;;;;;;4936351;29;20043;-75
2022/07/08 15:36:45;;;;;;;12.43;9.30;;;;;;;;;;4937647;29;20063;-76
2022/07/08 15:39:31;;;;;;;11.80;9.15;;;;;;;;;;4936754;29;20055;-75
2022/07/08 15:42:17;;;;;;;11.48;9.00;;;;;;;;;;4943403;29;20047;-76
2022/07/08 15:45:02;;;;;;;10.05;8.45;;;;;;;;;;4936104;29;20047;-75
2022/07/08 15:47:48;;;;;;;12.60;8.60;;;;;;;;;;4942585;29;20118;-77
2022/07/08 15:50:33;;;;;;;12.35;8.43;;;;;;;;;;4936968;29;20047;-75
2022/07/08 15:53:19;;;;;;;16.92;8.32;;;;;;;;;;4935878;29;20052;-76
2022/07/08 15:56:04;;;;;;;10.73;7.40;;;;;;;;;;4935700;29;20052;-77
2022/07/08 15:58:50;;;;;;;9.43;7.88;;;;;;;;;;4936834;29;20048;-77
2022/07/08 16:01:36;;;;;;;9.55;7.88;;;;;;;;;;4936226;29;20052;-75
2022/07/08 16:04:21;;;;;;;9.45;7.93;;;;;;;;;;4942958;29;20048;-77
2022/07/08 16:07:07;;;;;;;10.00;7.13;;;;;;;;;;4935780;29;20051;-77
2022/07/08 16:09:53;;;;;;;7.95;7.10;;;;;;;;;;4942530;29;20398;-76
2022/07/08 16:12:38;;;;;;;10.48;8.07;;;;;;;;;;4936361;29;20048;-76
2022/07/08 16:15:24;;;;;;;10.95;7.85;;;;;;;;;;4935668;29;20051;-75
2022/07/08 16:18:09;;;;;;;12.88;8.63;;;;;;;;;;4936350;29;20051;-76
2022/07/08 16:20:55;;;;;;;12.57;7.32;;;;;;;;;;4942892;29;20405;-76
2022/07/08 16:23:40;;;;;;;8.43;7.47;;;;;;;;;;4935557;29;20486;-75
2022/07/08 16:26:26;;;;;;;12.52;7.43;;;;;;;;;;4936633;29;20478;-75
2022/07/08 16:29:11;;;;;;;14.55;7.55;;;;;;;;;;4935635;29;20047;-76
2022/07/08 16:31:57;;;;;;;9.07;6.85;;;;;;;;;;4934534;29;20513;-76